Time;durP1;ratioP1;P1;durP2;ratioP2;P2;SDS_P1;SDS_P2;PMS_P1;PMS_P2;Temp;Humidity;BMP_temperature;BMP_pressure;BME280_temperature;BME280_humidity;BME280_pressure;Samples;Min_cycle;Max_cycle;Signal;HPM_P1;HPM_P2
2022/04/17 00:00:20;;;;;;;12.93;11.60;;;;;;;;;;6075196;29;20233;-76
2022/04/17 00:03:41;;;;;;;14.20;12.70;;;;;;;;;;6062445;29;20229;-77
2022/04/17 00:07:02;;;;;;;13.67;12.37;;;;;;;;;;6069700;29;20694;-78
2022/04/17 00:10:24;;;;;;;14.73;13.33;;;;;;;;;;6061887;29;20245;-78
2022/04/17 00:13:45;;;;;;;12.17;10.97;;;;;;;;;;6072217;29;20533;-78
2022/04/17 00:17:05;;;;;;;14.60;13.17;;;;;;;;;;6081189;29;20308;-78
2022/04/17 00:20:26;;;;;;;13.80;12.40;;;;;;;;;;6065457;29;20229;-78
2022/04/17 00:23:47;;;;;;;13.27;11.87;;;;;;;;;;6063663;29;20275;-78
2022/04/17 00:27:09;;;;;;;13.37;12.03;;;;;;;;;;6062225;29;20316;-78
2022/04/17 00:30:30;;;;;;;12.40;11.07;;;;;;;;;;6067334;29;20511;-78
2022/04/17 00:33:50;;;;;;;16.70;13.30;;;;;;;;;;6062352;29;20233;-77
2022/04/17 00:37:11;;;;;;;15.50;14.00;;;;;;;;;;6061596;29;20242;-77
2022/04/17 00:40:31;;;;;;;14.97;13.37;;;;;;;;;;6069070;29;20274;-78
2022/04/17 00:43:54;;;;;;;14.00;12.60;;;;;;;;;;6060743;29;20546;-77
2022/04/17 00:47:15;;;;;;;15.23;13.73;;;;;;;;;;6062812;29;20233;-77
2022/04/17 00:50:37;;;;;;;16.23;14.63;;;;;;;;;;6063525;29;20238;-77
2022/04/17 00:53:58;;;;;;;17.93;16.17;;;;;;;;;;6066953;29;20264;-78
2022/04/17 00:57:19;;;;;;;17.13;15.33;;;;;;;;;;6061519;29;20233;-77
2022/04/17 01:00:41;;;;;;;18.33;16.50;;;;;;;;;;6061511;29;20245;-78
2022/04/17 01:04:02;;;;;;;18.80;16.77;;;;;;;;;;6055552;29;20225;-77
2022/04/17 01:07:23;;;;;;;19.90;17.80;;;;;;;;;;6057620;29;20229;-79
2022/04/17 01:10:44;;;;;;;21.33;19.17;;;;;;;;;;6075103;29;20233;-78
2022/04/17 01:14:05;;;;;;;21.70;19.50;;;;;;;;;;6070036;29;20321;-78
2022/04/17 01:17:27;;;;;;;23.53;20.17;;;;;;;;;;6064295;29;20317;-78
2022/04/17 01:20:47;;;;;;;25.20;22.70;;;;;;;;;;6066683;29;20324;-77
2022/04/17 01:27:47;;;;;;;23.50;20.87;;;;;;;;;;6067488;29;20241;-78
2022/04/17 01:31:09;;;;;;;24.23;21.70;;;;;;;;;;6061712;29;20256;-78
2022/04/17 01:34:29;;;;;;;25.17;22.57;;;;;;;;;;6062505;29;20240;-78
2022/04/17 01:37:50;;;;;;;25.07;22.17;;;;;;;;;;6074646;29;21628;-78
2022/04/17 01:41:15;;;;;;;24.13;21.63;;;;;;;;;;6063059;29;20252;-78
2022/04/17 01:44:36;;;;;;;27.27;24.37;;;;;;;;;;6064487;29;20272;-78
2022/04/17 01:47:56;;;;;;;24.93;22.17;;;;;;;;;;6056125;29;20237;-78
2022/04/17 01:51:17;;;;;;;24.13;21.37;;;;;;;;;;6055728;29;20240;-78
2022/04/17 01:54:37;;;;;;;26.20;21.63;;;;;;;;;;6067128;29;20241;-78
2022/04/17 01:57:59;;;;;;;25.37;22.67;;;;;;;;;;6059079;29;20241;-78
2022/04/17 02:01:20;;;;;;;26.47;22.67;;;;;;;;;;6057995;29;20233;-78
2022/04/17 02:04:40;;;;;;;29.13;25.30;;;;;;;;;;6065216;29;20511;-78
2022/04/17 02:08:01;;;;;;;27.77;23.90;;;;;;;;;;6062601;29;20241;-78
2022/04/17 02:11:22;;;;;;;26.80;23.90;;;;;;;;;;6069982;29;20233;-78
2022/04/17 02:14:45;;;;;;;30.70;25.27;;;;;;;;;;6066635;29;20233;-78
2022/04/17 02:18:06;;;;;;;28.53;23.47;;;;;;;;;;6064746;29;20237;-78
2022/04/17 02:21:27;;;;;;;28.93;25.97;;;;;;;;;;6073833;29;20233;-78
2022/04/17 02:24:48;;;;;;;28.87;25.73;;;;;;;;;;6064598;29;20234;-80
2022/04/17 02:28:09;;;;;;;27.43;24.57;;;;;;;;;;6067743;29;20225;-79
2022/04/17 02:31:31;;;;;;;28.10;25.10;;;;;;;;;;6067394;29;20319;-78
2022/04/17 02:34:52;;;;;;;28.87;25.27;;;;;;;;;;6090634;29;20651;-78
2022/04/17 02:38:14;;;;;;;31.80;27.47;;;;;;;;;;6067422;29;20242;-78
2022/04/17 02:41:35;;;;;;;27.07;24.27;;;;;;;;;;6065542;29;20591;-79
2022/04/17 02:44:55;;;;;;;28.10;23.97;;;;;;;;;;6086098;29;20285;-79
2022/04/17 02:48:18;;;;;;;31.03;25.43;;;;;;;;;;6064204;29;20309;-79
2022/04/17 02:51:39;;;;;;;28.80;25.60;;;;;;;;;;6064498;29;20237;-79
2022/04/17 02:55:00;;;;;;;35.83;27.80;;;;;;;;;;6061211;29;20316;-79
2022/04/17 02:58:20;;;;;;;30.57;26.17;;;;;;;;;;6069076;29;20229;-79
2022/04/17 03:05:39;;;;;;;30.17;26.90;;;;;;;;;;6080497;29;20233;-78
2022/04/17 03:08:59;;;;;;;31.40;25.07;;;;;;;;;;6065216;29;20245;-79
2022/04/17 03:12:20;;;;;;;27.93;24.50;;;;;;;;;;6083174;29;20237;-78
2022/04/17 03:15:40;;;;;;;29.70;24.73;;;;;;;;;;6083903;29;20232;-79
2022/04/17 03:19:01;;;;;;;32.83;25.63;;;;;;;;;;6077206;29;20266;-78
2022/04/17 03:22:23;;;;;;;33.07;25.43;;;;;;;;;;6068381;29;20237;-78
2022/04/17 03:25:44;;;;;;;30.73;25.37;;;;;;;;;;6067381;29;20221;-79
2022/04/17 03:29:05;;;;;;;29.67;24.23;;;;;;;;;;6066297;29;20596;-78
2022/04/17 03:32:25;;;;;;;31.13;23.63;;;;;;;;;;6065636;29;20241;-79
2022/04/17 03:35:46;;;;;;;29.00;24.87;;;;;;;;;;6069848;29;20240;-78
2022/04/17 03:39:08;;;;;;;33.77;26.57;;;;;;;;;;6063920;29;20233;-78
2022/04/17 03:42:29;;;;;;;32.10;28.87;;;;;;;;;;6065598;29;20870;-78
2022/04/17 03:45:49;;;;;;;37.53;29.83;;;;;;;;;;6067228;29;20233;-79
2022/04/17 03:49:09;;;;;;;39.20;29.07;;;;;;;;;;6059933;29;20228;-78
2022/04/17 03:52:38;;;;;;;38.47;30.47;;;;;;;;;;6067117;29;20229;-78
2022/04/17 03:56:00;;;;;;;36.80;30.13;;;;;;;;;;6064501;29;20241;-79
2022/04/17 03:59:22;;;;;;;40.50;31.33;;;;;;;;;;6066396;29;20233;-78
2022/04/17 04:02:44;;;;;;;41.93;32.27;;;;;;;;;;6066097;29;20238;-79
2022/04/17 04:06:05;;;;;;;36.40;29.47;;;;;;;;;;6069652;29;20743;-80
2022/04/17 04:09:25;;;;;;;35.10;28.77;;;;;;;;;;6092580;29;20280;-79
2022/04/17 04:12:50;;;;;;;35.60;29.87;;;;;;;;;;6068863;29;20238;-77
2022/04/17 04:16:10;;;;;;;36.30;31.17;;;;;;;;;;6068127;29;20233;-79
2022/04/17 04:19:31;;;;;;;36.40;30.30;;;;;;;;;;6058842;29;20901;-79
2022/04/17 04:22:51;;;;;;;33.20;29.57;;;;;;;;;;6063101;29;20237;-80
2022/04/17 04:26:12;;;;;;;31.63;27.53;;;;;;;;;;6066289;29;20224;-79
2022/04/17 04:29:34;;;;;;;38.07;29.57;;;;;;;;;;6080416;29;20610;-79
2022/04/17 04:32:55;;;;;;;31.47;28.03;;;;;;;;;;6069759;29;20233;-78
2022/04/17 04:36:16;;;;;;;35.07;29.73;;;;;;;;;;6067136;29;20263;-78
2022/04/17 04:39:37;;;;;;;31.83;26.80;;;;;;;;;;6065095;29;20233;-80
2022/04/17 04:42:58;;;;;;;32.33;26.33;;;;;;;;;;6066078;29;20229;-79
2022/04/17 04:46:20;;;;;;;27.87;24.87;;;;;;;;;;6067672;29;20256;-78
2022/04/17 04:49:40;;;;;;;27.07;23.63;;;;;;;;;;6061377;29;20329;-78
2022/04/17 04:53:01;;;;;;;22.57;20.20;;;;;;;;;;6063483;29;20346;-79
2022/04/17 04:56:22;;;;;;;24.07;19.90;;;;;;;;;;6066833;29;20232;-78
2022/04/17 04:59:43;;;;;;;23.17;19.63;;;;;;;;;;6080110;29;20225;-79
2022/04/17 05:03:05;;;;;;;21.50;19.27;;;;;;;;;;6069737;29;20241;-80
2022/04/17 05:06:25;;;;;;;23.07;20.27;;;;;;;;;;6073514;29;20233;-77
2022/04/17 05:09:46;;;;;;;22.50;20.23;;;;;;;;;;6070466;29;20607;-79
2022/04/17 05:13:06;;;;;;;21.10;18.87;;;;;;;;;;6072939;29;20229;-79
2022/04/17 05:16:27;;;;;;;17.30;15.50;;;;;;;;;;6069509;29;20244;-80
2022/04/17 05:19:50;;;;;;;16.87;15.27;;;;;;;;;;6071993;29;20233;-80
2022/04/17 05:23:19;;;;;;;19.57;15.70;;;;;;;;;;6084669;29;20241;-79
2022/04/17 05:26:39;;;;;;;19.13;15.23;;;;;;;;;;6066302;29;20284;-80
2022/04/17 05:30:00;;;;;;;14.83;13.33;;;;;;;;;;6067544;29;20233;-79
2022/04/17 05:33:22;;;;;;;14.80;13.33;;;;;;;;;;6069750;29;20233;-78
2022/04/17 05:36:44;;;;;;;15.07;13.47;;;;;;;;;;6071807;29;20786;-79
2022/04/17 05:40:05;;;;;;;14.93;13.40;;;;;;;;;;6099609;29;20221;-79
2022/04/17 05:43:26;;;;;;;15.07;13.60;;;;;;;;;;6071787;29;20620;-78
2022/04/17 05:46:47;;;;;;;15.63;14.03;;;;;;;;;;6071974;29;20701;-79
2022/04/17 05:50:08;;;;;;;17.37;15.70;;;;;;;;;;6073980;29;20241;-78
2022/04/17 05:53:30;;;;;;;15.97;14.17;;;;;;;;;;6080603;29;20240;-80
2022/04/17 05:56:51;;;;;;;14.57;13.07;;;;;;;;;;6073158;29;20604;-78
2022/04/17 06:00:12;;;;;;;13.63;12.33;;;;;;;;;;6073135;29;20607;-79
2022/04/17 06:03:36;;;;;;;15.27;13.43;;;;;;;;;;6072282;29;20229;-78
2022/04/17 06:06:57;;;;;;;13.70;12.30;;;;;;;;;;6084532;29;20650;-79
2022/04/17 06:10:21;;;;;;;14.70;13.10;;;;;;;;;;6069646;29;20249;-79
2022/04/17 06:13:42;;;;;;;16.67;13.30;;;;;;;;;;6080949;29;20224;-80
2022/04/17 06:17:02;;;;;;;14.97;13.40;;;;;;;;;;6084657;29;20242;-81
2022/04/17 06:20:23;;;;;;;15.30;13.80;;;;;;;;;;6064601;29;20234;-79
2022/04/17 06:23:43;;;;;;;13.23;11.73;;;;;;;;;;6067757;29;20310;-79
2022/04/17 06:27:06;;;;;;;15.47;13.30;;;;;;;;;;6077755;29;20581;-80
2022/04/17 06:30:26;;;;;;;16.73;13.70;;;;;;;;;;6078487;29;20237;-78
2022/04/17 06:33:47;;;;;;;15.20;13.23;;;;;;;;;;6072119;29;20225;-81
2022/04/17 06:37:07;;;;;;;16.27;13.20;;;;;;;;;;6080195;29;20233;-78
2022/04/17 06:40:29;;;;;;;16.20;12.67;;;;;;;;;;6073032;29;20610;-80
2022/04/17 06:43:51;;;;;;;13.77;12.10;;;;;;;;;;6074350;29;20649;-79
2022/04/17 06:47:12;;;;;;;13.33;12.03;;;;;;;;;;6093540;29;20374;-82
2022/04/17 06:50:33;;;;;;;10.70;9.70;;;;;;;;;;6074626;29;20668;-80
2022/04/17 06:53:54;;;;;;;12.97;10.93;;;;;;;;;;6071272;29;20512;-80
2022/04/17 06:57:15;;;;;;;16.67;11.87;;;;;;;;;;6062391;29;20274;-80
2022/04/17 07:00:38;;;;;;;12.77;11.57;;;;;;;;;;6069149;29;20328;-80
2022/04/17 07:03:58;;;;;;;12.40;11.10;;;;;;;;;;6069056;29;20984;-80
2022/04/17 07:07:19;;;;;;;17.03;11.17;;;;;;;;;;6082727;29;20237;-80
2022/04/17 07:10:40;;;;;;;13.47;12.03;;;;;;;;;;6074212;29;20226;-80
2022/04/17 07:14:01;;;;;;;11.97;10.83;;;;;;;;;;6073066;29;20253;-80
2022/04/17 07:17:32;;;;;;;11.10;9.90;;;;;;;;;;6070512;29;20239;-80
2022/04/17 07:20:52;;;;;;;12.30;11.10;;;;;;;;;;6072223;29;20221;-79
2022/04/17 07:24:13;;;;;;;13.93;12.03;;;;;;;;;;6074317;29;20233;-80
2022/04/17 07:27:36;;;;;;;10.63;9.53;;;;;;;;;;6067193;29;20237;-78
2022/04/17 07:30:56;;;;;;;13.63;10.93;;;;;;;;;;6073314;29;20233;-78
2022/04/17 07:34:19;;;;;;;12.93;10.23;;;;;;;;;;6073083;29;20241;-78
2022/04/17 07:37:39;;;;;;;11.57;7.60;;;;;;;;;;6068336;29;20230;-79
2022/04/17 07:41:03;;;;;;;9.57;8.50;;;;;;;;;;6075346;29;20229;-78
2022/04/17 07:44:25;;;;;;;9.17;8.20;;;;;;;;;;6072580;29;20240;-78
2022/04/17 07:47:45;;;;;;;9.33;7.93;;;;;;;;;;6072448;29;20237;-79
2022/04/17 07:51:07;;;;;;;9.27;8.23;;;;;;;;;;6091983;29;20228;-77
2022/04/17 07:54:27;;;;;;;10.83;8.53;;;;;;;;;;6080247;29;20233;-79
2022/04/17 07:57:57;;;;;;;9.77;8.50;;;;;;;;;;6082614;29;20325;-79
2022/04/17 08:01:18;;;;;;;8.23;6.70;;;;;;;;;;6584752;23;21063;-78
2022/04/17 08:04:39;;;;;;;7.10;6.17;;;;;;;;;;6073587;29;20597;-79
2022/04/17 08:08:01;;;;;;;6.63;6.03;;;;;;;;;;6082488;29;20234;-79
2022/04/17 08:11:23;;;;;;;7.47;5.80;;;;;;;;;;6087294;29;20229;-78
2022/04/17 08:14:44;;;;;;;5.33;4.77;;;;;;;;;;6104949;29;20233;-80
2022/04/17 08:18:04;;;;;;;5.13;4.63;;;;;;;;;;6076535;29;20535;-79
2022/04/17 08:21:25;;;;;;;5.80;4.90;;;;;;;;;;6065306;29;20241;-79
2022/04/17 08:24:48;;;;;;;5.57;4.77;;;;;;;;;;6070150;29;20225;-79
2022/04/17 08:28:09;;;;;;;4.63;4.20;;;;;;;;;;6075639;29;20245;-78
2022/04/17 08:31:30;;;;;;;5.93;4.60;;;;;;;;;;6069921;29;20253;-78
2022/04/17 08:34:50;;;;;;;4.67;4.03;;;;;;;;;;6066761;29;20233;-78
2022/04/17 08:38:11;;;;;;;5.00;3.90;;;;;;;;;;6065573;29;20230;-78
2022/04/17 08:41:34;;;;;;;5.43;4.20;;;;;;;;;;6059855;29;20268;-79
2022/04/17 08:44:54;;;;;;;4.77;4.27;;;;;;;;;;6064545;29;20230;-78
2022/04/17 08:48:14;;;;;;;5.50;4.93;;;;;;;;;;6066421;29;20233;-80
2022/04/17 08:51:36;;;;;;;7.37;4.83;;;;;;;;;;6071604;29;20233;-78
2022/04/17 08:54:59;;;;;;;7.70;5.43;;;;;;;;;;6061909;29;20296;-78
2022/04/17 08:58:22;;;;;;;8.10;5.77;;;;;;;;;;6069477;29;20249;-79
2022/04/17 09:01:43;;;;;;;5.93;5.33;;;;;;;;;;6082089;29;20316;-79
2022/04/17 09:05:04;;;;;;;7.97;5.70;;;;;;;;;;6078530;29;20655;-78
2022/04/17 09:08:24;;;;;;;9.47;5.87;;;;;;;;;;6082375;29;20232;-78
2022/04/17 09:11:45;;;;;;;6.33;4.90;;;;;;;;;;6074613;29;20249;-78
2022/04/17 09:15:10;;;;;;;5.80;4.70;;;;;;;;;;6080151;29;20271;-77
2022/04/17 09:18:32;;;;;;;6.43;4.80;;;;;;;;;;6068337;29;20236;-77
2022/04/17 09:21:54;;;;;;;5.27;4.10;;;;;;;;;;6083854;29;20228;-79
2022/04/17 09:25:15;;;;;;;4.50;3.60;;;;;;;;;;6080765;29;20233;-77
2022/04/17 09:28:37;;;;;;;5.60;4.17;;;;;;;;;;6068678;29;21275;-77
2022/04/17 09:32:00;;;;;;;7.63;4.83;;;;;;;;;;6061408;29;20238;-77
2022/04/17 09:35:22;;;;;;;5.80;4.57;;;;;;;;;;6070785;29;20253;-78
2022/04/17 09:38:47;;;;;;;8.83;4.90;;;;;;;;;;6070821;29;20233;-78
2022/04/17 09:42:08;;;;;;;5.07;4.50;;;;;;;;;;6074225;29;20236;-77
2022/04/17 09:45:28;;;;;;;4.43;3.77;;;;;;;;;;6073193;29;20228;-77
2022/04/17 09:48:50;;;;;;;3.60;3.30;;;;;;;;;;6073087;29;20355;-77
2022/04/17 09:52:11;;;;;;;6.00;3.03;;;;;;;;;;6072693;29;20512;-77
2022/04/17 09:55:38;;;;;;;4.60;4.07;;;;;;;;;;6066444;29;20230;-77
2022/04/17 09:58:59;;;;;;;4.47;4.07;;;;;;;;;;6069140;29;20237;-78
2022/04/17 10:02:20;;;;;;;4.13;3.20;;;;;;;;;;6068336;29;20233;-77
2022/04/17 10:05:42;;;;;;;3.57;2.50;;;;;;;;;;6064751;29;20500;-77
2022/04/17 10:09:03;;;;;;;6.43;3.30;;;;;;;;;;6068277;29;20229;-78
2022/04/17 10:12:23;;;;;;;3.90;2.53;;;;;;;;;;6073690;29;20236;-78
2022/04/17 10:15:44;;;;;;;3.97;2.97;;;;;;;;;;6067956;29;20316;-77
2022/04/17 10:19:06;;;;;;;3.03;2.53;;;;;;;;;;6066476;29;20241;-78
2022/04/17 10:22:29;;;;;;;2.83;2.30;;;;;;;;;;6085181;29;20248;-78
2022/04/17 10:25:51;;;;;;;2.47;1.83;;;;;;;;;;6075298;29;20233;-77
2022/04/17 10:29:14;;;;;;;4.97;2.43;;;;;;;;;;6071036;29;20229;-79
2022/04/17 10:32:43;;;;;;;2.00;1.80;;;;;;;;;;6074892;29;20237;-78
2022/04/17 10:36:16;;;;;;;2.23;1.93;;;;;;;;;;6075384;29;20400;-77
2022/04/17 10:39:40;;;;;;;4.00;2.77;;;;;;;;;;6076772;29;21146;-77
2022/04/17 10:43:01;;;;;;;1.97;1.80;;;;;;;;;;6068472;29;20635;-79
2022/04/17 10:46:22;;;;;;;1.73;1.53;;;;;;;;;;6071813;29;20237;-78
2022/04/17 10:49:52;;;;;;;3.87;1.73;;;;;;;;;;6076590;29;20297;-77
2022/04/17 10:53:25;;;;;;;2.77;2.57;;;;;;;;;;6071163;29;20233;-77
2022/04/17 10:57:02;;;;;;;2.20;2.00;;;;;;;;;;6070418;29;20264;-79
2022/04/17 11:00:28;;;;;;;2.63;1.97;;;;;;;;;;6073510;29;20241;-79
2022/04/17 11:03:52;;;;;;;2.13;1.60;;;;;;;;;;6067776;29;20225;-77
2022/04/17 11:07:19;;;;;;;2.20;1.93;;;;;;;;;;6067579;29;20245;-77
2022/04/17 11:10:42;;;;;;;3.07;2.73;;;;;;;;;;6071206;29;20238;-78
2022/04/17 11:14:11;;;;;;;2.37;1.60;;;;;;;;;;6072242;29;20272;-78
2022/04/17 11:17:32;;;;;;;1.80;1.70;;;;;;;;;;6072100;29;20224;-77
2022/04/17 11:20:54;;;;;;;2.30;1.53;;;;;;;;;;6073438;29;20233;-78
2022/04/17 11:24:15;;;;;;;1.73;1.50;;;;;;;;;;6073825;29;20315;-79
2022/04/17 11:27:38;;;;;;;2.20;1.80;;;;;;;;;;6068723;29;20233;-77
2022/04/17 11:30:59;;;;;;;3.20;1.93;;;;;;;;;;6067703;29;20261;-77
2022/04/17 11:34:20;;;;;;;1.80;1.33;;;;;;;;;;6072315;29;20933;-77
2022/04/17 11:37:51;;;;;;;1.73;1.60;;;;;;;;;;6081518;29;20253;-76
2022/04/17 11:41:14;;;;;;;3.03;2.20;;;;;;;;;;6063235;29;20618;-76
2022/04/17 11:44:34;;;;;;;1.77;1.33;;;;;;;;;;6072147;29;20240;-77
2022/04/17 11:47:56;;;;;;;1.53;1.33;;;;;;;;;;6065752;29;20237;-76
2022/04/17 11:51:19;;;;;;;1.65;1.05;;;;;;;;;;6075098;29;20328;-77
2022/04/17 11:54:41;;;;;;;1.10;1.10;;;;;;;;;;6069363;29;20233;-76
2022/04/17 11:58:02;;;;;;;1.20;1.10;;;;;;;;;;6069602;29;20257;-77
2022/04/17 12:01:23;;;;;;;1.20;1.00;;;;;;;;;;6075869;29;20233;-77
2022/04/17 12:04:45;;;;;;;1.17;1.10;;;;;;;;;;6074491;29;20312;-78
2022/04/17 12:08:10;;;;;;;1.85;1.20;;;;;;;;;;6072635;29;20267;-78
2022/04/17 12:11:33;;;;;;;1.45;1.35;;;;;;;;;;6074485;29;20241;-77
2022/04/17 12:14:55;;;;;;;2.25;1.38;;;;;;;;;;6074964;29;20229;-78
2022/04/17 12:18:19;;;;;;;1.48;1.00;;;;;;;;;;6069888;29;20247;-78
2022/04/17 12:21:40;;;;;;;2.42;1.30;;;;;;;;;;6066856;29;20242;-76
2022/04/17 12:25:01;;;;;;;1.60;1.30;;;;;;;;;;6064660;29;20229;-77
2022/04/17 12:28:23;;;;;;;1.30;1.20;;;;;;;;;;6069655;29;20511;-77
2022/04/17 12:31:44;;;;;;;1.52;1.30;;;;;;;;;;6068110;29;20333;-76
2022/04/17 12:35:05;;;;;;;1.52;1.42;;;;;;;;;;6068663;29;20315;-77
2022/04/17 12:38:25;;;;;;;1.50;1.20;;;;;;;;;;6065306;29;20233;-77
2022/04/17 12:41:48;;;;;;;1.15;1.05;;;;;;;;;;6072864;29;20252;-76
2022/04/17 12:45:11;;;;;;;1.25;1.15;;;;;;;;;;6074314;29;20280;-77
2022/04/17 12:48:33;;;;;;;2.15;1.40;;;;;;;;;;6066602;29;20237;-77
2022/04/17 12:51:54;;;;;;;1.83;1.50;;;;;;;;;;6070993;29;20328;-77
2022/04/17 12:55:15;;;;;;;1.58;1.15;;;;;;;;;;6064532;29;20236;-76
2022/04/17 12:58:48;;;;;;;1.45;1.20;;;;;;;;;;6071308;29;20237;-76
2022/04/17 13:02:13;;;;;;;2.25;1.50;;;;;;;;;;6064053;29;20241;-76
2022/04/17 13:05:34;;;;;;;2.42;1.45;;;;;;;;;;6066751;29;20712;-76
2022/04/17 13:09:01;;;;;;;1.58;1.25;;;;;;;;;;6067123;29;20225;-77
2022/04/17 13:12:32;;;;;;;1.13;1.00;;;;;;;;;;6075128;29;20233;-75
2022/04/17 13:16:00;;;;;;;1.40;0.98;;;;;;;;;;6065571;29;20553;-76
2022/04/17 13:19:23;;;;;;;1.15;1.05;;;;;;;;;;6072018;29;20233;-75
2022/04/17 13:22:43;;;;;;;2.10;1.10;;;;;;;;;;6070185;29;20237;-75
2022/04/17 13:26:04;;;;;;;2.28;1.40;;;;;;;;;;6068583;29;20233;-75
2022/04/17 13:29:25;;;;;;;2.50;1.20;;;;;;;;;;6072858;29;20241;-75
2022/04/17 13:32:46;;;;;;;1.15;1.00;;;;;;;;;;6065003;29;20328;-75
2022/04/17 13:36:07;;;;;;;5.65;1.52;;;;;;;;;;6073504;29;20340;-75
2022/04/17 13:39:30;;;;;;;5.43;1.95;;;;;;;;;;6068331;29;20282;-74
2022/04/17 13:42:50;;;;;;;3.67;1.40;;;;;;;;;;6070709;29;20234;-75
2022/04/17 13:46:11;;;;;;;1.45;1.35;;;;;;;;;;6071490;29;20232;-75
2022/04/17 13:49:31;;;;;;;1.92;1.38;;;;;;;;;;6093974;29;20237;-76
2022/04/17 13:52:53;;;;;;;1.83;1.70;;;;;;;;;;6072763;29;20613;-76
2022/04/17 13:56:17;;;;;;;1.85;1.00;;;;;;;;;;6072980;29;20316;-76
2022/04/17 13:59:37;;;;;;;1.15;0.93;;;;;;;;;;6067814;29;20233;-74
2022/04/17 14:02:58;;;;;;;1.30;1.20;;;;;;;;;;6068574;29;20257;-73
2022/04/17 14:06:19;;;;;;;2.03;1.90;;;;;;;;;;6073027;29;20229;-74
2022/04/17 14:09:43;;;;;;;2.28;1.23;;;;;;;;;;6091417;29;20239;-75
2022/04/17 14:13:04;;;;;;;1.30;1.08;;;;;;;;;;6071412;29;20245;-76
2022/04/17 14:16:24;;;;;;;1.20;1.10;;;;;;;;;;6074614;29;20229;-75
2022/04/17 14:19:45;;;;;;;1.13;1.02;;;;;;;;;;6074509;29;20237;-75
2022/04/17 14:23:06;;;;;;;1.23;1.02;;;;;;;;;;6072416;29;20249;-75
2022/04/17 14:26:28;;;;;;;1.10;1.00;;;;;;;;;;6073078;29;20228;-75
2022/04/17 14:29:49;;;;;;;1.30;0.90;;;;;;;;;;6075281;29;20237;-75
2022/04/17 14:33:09;;;;;;;1.20;1.10;;;;;;;;;;6072887;29;20229;-75
2022/04/17 14:36:30;;;;;;;1.40;1.30;;;;;;;;;;6073075;29;20301;-75
2022/04/17 14:39:51;;;;;;;1.90;1.30;;;;;;;;;;6072957;29;20534;-75
2022/04/17 14:43:13;;;;;;;3.10;1.67;;;;;;;;;;6093771;29;20237;-74
2022/04/17 14:46:34;;;;;;;1.60;1.27;;;;;;;;;;6072495;29;20257;-75
2022/04/17 14:49:54;;;;;;;1.63;1.27;;;;;;;;;;6071440;29;20236;-74
2022/04/17 14:53:15;;;;;;;2.03;1.23;;;;;;;;;;6070222;29;20233;-74
2022/04/17 14:56:35;;;;;;;1.65;1.10;;;;;;;;;;6070028;29;20308;-75
2022/04/17 14:59:57;;;;;;;3.25;1.27;;;;;;;;;;6073283;29;20252;-75
2022/04/17 15:03:18;;;;;;;1.65;1.55;;;;;;;;;;6072943;29;20225;-74
2022/04/17 15:06:39;;;;;;;1.55;1.42;;;;;;;;;;6071276;29;20230;-75
2022/04/17 15:09:59;;;;;;;1.30;1.20;;;;;;;;;;6071449;29;20233;-76
2022/04/17 15:13:20;;;;;;;1.60;1.02;;;;;;;;;;6072853;29;20229;-75
2022/04/17 15:16:42;;;;;;;2.03;1.10;;;;;;;;;;6070880;29;20280;-76
2022/04/17 15:20:03;;;;;;;1.35;1.25;;;;;;;;;;6071930;29;20229;-77
2022/04/17 15:23:24;;;;;;;2.13;1.50;;;;;;;;;;6075225;29;20233;-77
2022/04/17 15:26:44;;;;;;;1.05;1.00;;;;;;;;;;6074016;29;20230;-75
2022/04/17 15:30:05;;;;;;;1.48;1.13;;;;;;;;;;6073182;29;20241;-76
2022/04/17 15:33:27;;;;;;;1.67;1.00;;;;;;;;;;6072140;29;20252;-76
2022/04/17 15:36:48;;;;;;;2.30;1.70;;;;;;;;;;6069373;29;20237;-76
2022/04/17 15:40:10;;;;;;;2.80;1.40;;;;;;;;;;6074647;29;20245;-75
2022/04/17 15:50:50;;;;;;;1.13;1.13;;;;;;;;;;6070019;29;20328;-75
2022/04/17 15:54:12;;;;;;;2.55;2.05;;;;;;;;;;6071066;29;20229;-75
2022/04/17 15:57:34;;;;;;;5.22;1.52;;;;;;;;;;6068321;29;20302;-75
2022/04/17 16:00:55;;;;;;;2.75;1.17;;;;;;;;;;6071105;29;20234;-75
2022/04/17 16:04:16;;;;;;;3.10;1.30;;;;;;;;;;6074512;29;20225;-75
2022/04/17 16:07:39;;;;;;;1.30;1.13;;;;;;;;;;6070421;29;20635;-76
2022/04/17 16:11:01;;;;;;;1.65;1.55;;;;;;;;;;6073889;29;20328;-74
2022/04/17 16:14:21;;;;;;;1.42;1.33;;;;;;;;;;6076811;29;20237;-75
2022/04/17 16:17:42;;;;;;;3.20;2.28;;;;;;;;;;6069314;29;20260;-75
2022/04/17 16:21:02;;;;;;;2.25;2.10;;;;;;;;;;6068207;29;20245;-75
2022/04/17 16:24:25;;;;;;;1.73;1.60;;;;;;;;;;6068283;29;20620;-74
2022/04/17 16:27:45;;;;;;;3.10;2.80;;;;;;;;;;6068596;29;20272;-75
2022/04/17 16:31:06;;;;;;;3.97;2.10;;;;;;;;;;6068831;29;20229;-76
2022/04/17 16:34:27;;;;;;;2.42;1.90;;;;;;;;;;6073394;29;20232;-76
2022/04/17 16:37:48;;;;;;;1.88;1.40;;;;;;;;;;6068983;29;20701;-75
2022/04/17 16:41:10;;;;;;;2.22;1.65;;;;;;;;;;6073982;29;20524;-76
2022/04/17 16:44:31;;;;;;;3.42;2.20;;;;;;;;;;6068685;29;20249;-76
2022/04/17 16:47:51;;;;;;;3.03;2.67;;;;;;;;;;6066770;29;20226;-75
2022/04/17 16:51:12;;;;;;;2.85;2.50;;;;;;;;;;6060165;29;20647;-75
2022/04/17 16:54:33;;;;;;;2.25;1.70;;;;;;;;;;6068565;29;20252;-76
2022/04/17 17:01:37;;;;;;;3.40;1.83;;;;;;;;;;6055316;29;20243;-75
2022/04/17 17:04:57;;;;;;;4.38;2.38;;;;;;;;;;6076678;29;20229;-75
2022/04/17 17:08:18;;;;;;;1.60;1.50;;;;;;;;;;6074530;29;20650;-74
2022/04/17 17:11:39;;;;;;;1.90;1.40;;;;;;;;;;6066342;29;20244;-76
2022/04/17 17:15:00;;;;;;;4.10;3.70;;;;;;;;;;6068036;29;20320;-74
2022/04/17 17:18:21;;;;;;;4.75;2.72;;;;;;;;;;6066649;29;20225;-76
2022/04/17 17:21:42;;;;;;;3.38;2.95;;;;;;;;;;6068972;29;20237;-76
2022/04/17 17:25:04;;;;;;;1.67;1.58;;;;;;;;;;6069776;29;20233;-75
2022/04/17 17:28:25;;;;;;;2.65;2.20;;;;;;;;;;6069249;29;20237;-76
2022/04/17 17:31:47;;;;;;;5.53;2.80;;;;;;;;;;6071262;29;20245;-75
2022/04/17 17:35:08;;;;;;;2.35;2.15;;;;;;;;;;6065498;29;20242;-75
2022/04/17 17:38:29;;;;;;;1.52;1.40;;;;;;;;;;6067591;29;20233;-75
2022/04/17 17:41:50;;;;;;;2.80;2.45;;;;;;;;;;6074784;29;20237;-76
2022/04/17 17:45:11;;;;;;;2.25;1.92;;;;;;;;;;6067252;29;20623;-75
2022/04/17 17:48:35;;;;;;;2.42;2.15;;;;;;;;;;6074698;29;20323;-77
2022/04/17 17:51:57;;;;;;;2.47;2.28;;;;;;;;;;6072104;29;20278;-77
2022/04/17 17:55:18;;;;;;;5.13;3.10;;;;;;;;;;6073357;29;20526;-75
2022/04/17 17:58:40;;;;;;;3.63;3.10;;;;;;;;;;6076283;29;20241;-75
2022/04/17 18:02:01;;;;;;;3.63;2.97;;;;;;;;;;6075404;29;20249;-76
2022/04/17 18:05:23;;;;;;;3.85;3.40;;;;;;;;;;6094722;29;20221;-75
2022/04/17 18:15:59;;;;;;;5.50;2.92;;;;;;;;;;6075635;29;20244;-75
2022/04/17 18:19:20;;;;;;;6.85;4.15;;;;;;;;;;6076355;29;20249;-75
2022/04/17 18:22:45;;;;;;;5.45;4.95;;;;;;;;;;6079174;29;20311;-76
2022/04/17 18:26:10;;;;;;;4.25;3.03;;;;;;;;;;6080337;29;20233;-76
2022/04/17 18:29:33;;;;;;;6.43;3.72;;;;;;;;;;6095817;29;20245;-77
2022/04/17 18:32:53;;;;;;;2.60;2.40;;;;;;;;;;6063925;29;20254;-76
2022/04/17 18:36:14;;;;;;;4.18;3.15;;;;;;;;;;6063837;29;20232;-75
2022/04/17 18:39:37;;;;;;;5.03;4.17;;;;;;;;;;6071039;29;20324;-76
2022/04/17 18:42:58;;;;;;;3.80;2.73;;;;;;;;;;6064228;29;20333;-75
2022/04/17 18:46:22;;;;;;;5.13;4.27;;;;;;;;;;6075745;29;20478;-76
2022/04/17 18:49:42;;;;;;;4.33;3.07;;;;;;;;;;6070066;29;20313;-76
2022/04/17 18:53:03;;;;;;;3.53;2.97;;;;;;;;;;6064826;29;20812;-75
2022/04/17 18:56:25;;;;;;;5.37;4.07;;;;;;;;;;6075377;29;20225;-76
2022/04/17 18:59:46;;;;;;;3.67;3.30;;;;;;;;;;6072545;29;20524;-76
2022/04/17 19:03:06;;;;;;;4.93;3.83;;;;;;;;;;6066105;29;20261;-77
2022/04/17 19:06:27;;;;;;;4.30;3.93;;;;;;;;;;6097345;29;20228;-77
2022/04/17 19:09:48;;;;;;;5.13;4.63;;;;;;;;;;6075185;29;20249;-76
2022/04/17 19:16:47;;;;;;;9.27;8.13;;;;;;;;;;6058610;29;20336;-75
2022/04/17 19:20:09;;;;;;;5.43;4.10;;;;;;;;;;6075862;29;20244;-76
2022/04/17 19:23:42;;;;;;;4.97;4.53;;;;;;;;;;6078848;29;20233;-77
2022/04/17 19:27:02;;;;;;;5.37;4.57;;;;;;;;;;6072101;29;20261;-77
2022/04/17 19:30:24;;;;;;;6.10;5.37;;;;;;;;;;6065256;29;20244;-77
2022/04/17 19:37:24;;;;;;;5.13;4.53;;;;;;;;;;6074350;29;20621;-77
2022/04/17 19:40:46;;;;;;;5.20;4.70;;;;;;;;;;6067595;29;20251;-76
2022/04/17 19:44:07;;;;;;;7.77;5.70;;;;;;;;;;6071704;29;20241;-77
2022/04/17 19:47:29;;;;;;;6.27;4.97;;;;;;;;;;6062699;29;20226;-78
2022/04/17 19:50:50;;;;;;;6.67;5.97;;;;;;;;;;6078512;29;20320;-77
2022/04/17 19:54:10;;;;;;;5.30;4.43;;;;;;;;;;6071700;29;20501;-76
2022/04/17 19:57:31;;;;;;;6.17;5.57;;;;;;;;;;6069030;29;20256;-77
2022/04/17 20:00:51;;;;;;;5.77;5.20;;;;;;;;;;6073105;29;20697;-77
2022/04/17 20:04:13;;;;;;;7.10;5.60;;;;;;;;;;6067606;29;20233;-77
2022/04/17 20:07:33;;;;;;;6.83;5.73;;;;;;;;;;6071813;29;20241;-76
2022/04/17 20:10:55;;;;;;;5.67;4.73;;;;;;;;;;6061873;29;20238;-76
2022/04/17 20:14:16;;;;;;;5.57;4.83;;;;;;;;;;6068354;29;20233;-76
2022/04/17 20:17:36;;;;;;;7.40;5.97;;;;;;;;;;6066368;29;20234;-75
2022/04/17 20:20:59;;;;;;;5.80;5.20;;;;;;;;;;6068512;29;20233;-76
2022/04/17 20:24:20;;;;;;;5.30;4.80;;;;;;;;;;6068986;29;20237;-76
2022/04/17 20:27:41;;;;;;;4.60;4.17;;;;;;;;;;6063388;29;20237;-75